Time;durP1;ratioP1;P1;durP2;ratioP2;P2;SDS_P1;SDS_P2;PMS_P1;PMS_P2;Temp;Humidity;BMP_temperature;BMP_pressure;BME280_temperature;BME280_humidity;BME280_pressure;Samples;Min_cycle;Max_cycle;Signal;HPM_P1;HPM_P2
2023/06/03 00:00:34;;;;;;;;;;;19.00;99.90;;;;;;5095252;28;19908;-40
2023/06/03 00:03:00;;;;;;;;;;;19.00;99.90;;;;;;5094169;28;19912;-39
2023/06/03 00:05:25;;;;;;;;;;;19.00;99.90;;;;;;5094427;28;19912;-39
2023/06/03 00:07:51;;;;;;;;;;;19.00;99.90;;;;;;5094224;28;19920;-39
2023/06/03 00:10:17;;;;;;;;;;;19.00;99.90;;;;;;5094057;28;19919;-39
2023/06/03 00:12:42;;;;;;;;;;;19.00;99.90;;;;;;5094029;28;19908;-38
2023/06/03 00:15:09;;;;;;;;;;;19.00;99.90;;;;;;5093784;28;19948;-39
2023/06/03 00:17:34;;;;;;;;;;;19.00;99.90;;;;;;5093450;28;19943;-40
2023/06/03 00:20:06;;;;;;;;;;;19.00;99.90;;;;;;5093880;28;19962;-40
2023/06/03 00:22:35;;;;;;;;;;;19.10;99.90;;;;;;5093881;28;20421;-38
2023/06/03 00:25:01;;;;;;;;;;;19.00;99.90;;;;;;5093785;28;19912;-40
2023/06/03 00:27:26;;;;;;;;;;;19.00;99.90;;;;;;5093229;28;19985;-40
2023/06/03 00:29:52;;;;;;;;;;;19.00;99.90;;;;;;5093571;28;20027;-39
2023/06/03 00:32:17;;;;;;;;;;;19.00;99.90;;;;;;5093709;28;19908;-39
2023/06/03 00:34:43;;;;;;;;;;;19.00;99.90;;;;;;5093511;28;19908;-40
2023/06/03 00:37:08;;;;;;;;;;;19.00;99.90;;;;;;5092790;28;19915;-39
2023/06/03 00:39:34;;;;;;;;;;;19.00;99.90;;;;;;5093591;28;20454;-39
2023/06/03 00:42:00;;;;;;;;;;;19.00;99.90;;;;;;5093514;28;20187;-40
2023/06/03 00:44:25;;;;;;;;;;;19.00;99.90;;;;;;5093209;28;19912;-40
2023/06/03 00:46:51;;;;;;;;;;;19.00;99.90;;;;;;5092884;28;19908;-39
2023/06/03 00:49:16;;;;;;;;;;;19.00;99.90;;;;;;5093305;28;20295;-39
2023/06/03 00:51:42;;;;;;;;;;;19.00;99.90;;;;;;5093328;28;20376;-40
2023/06/03 00:54:08;;;;;;;;;;;19.00;99.90;;;;;;5093535;28;19908;-38
2023/06/03 00:56:38;;;;;;;;;;;18.90;99.90;;;;;;5092570;28;19912;-39
2023/06/03 00:59:03;;;;;;;;;;;18.90;99.90;;;;;;5092964;28;20388;-39
2023/06/03 01:01:30;;;;;;;;;;;18.90;99.90;;;;;;5093121;28;19995;-40
2023/06/03 01:03:56;;;;;;;;;;;18.90;99.90;;;;;;5092952;28;19955;-39
2023/06/03 01:06:24;;;;;;;;;;;18.90;99.90;;;;;;5092471;28;20004;-40
2023/06/03 01:08:50;;;;;;;;;;;18.90;99.90;;;;;;5092799;28;20335;-39
2023/06/03 01:11:29;;;;;;;;;;;18.90;99.90;;;;;;5092699;28;20271;-39
2023/06/03 01:14:11;;;;;;;;;;;18.90;99.90;;;;;;5092819;28;19912;-40
2023/06/03 01:16:41;;;;;;;;;;;18.90;99.90;;;;;;5092363;28;19908;-40
2023/06/03 01:19:14;;;;;;;;;;;18.90;99.90;;;;;;5092843;28;19908;-38
2023/06/03 01:21:41;;;;;;;;;;;18.90;99.90;;;;;;5092690;28;20303;-40
2023/06/03 01:24:16;;;;;;;;;;;18.90;99.90;;;;;;5092600;28;19970;-38
2023/06/03 01:26:42;;;;;;;;;;;18.90;99.90;;;;;;5092140;28;19951;-38
2023/06/03 01:29:07;;;;;;;;;;;18.90;99.90;;;;;;5092527;28;20033;-38
2023/06/03 01:31:33;;;;;;;;;;;18.90;99.90;;;;;;5092630;28;19912;-39
2023/06/03 01:33:59;;;;;;;;;;;18.90;99.90;;;;;;5092359;28;19933;-38
2023/06/03 01:36:24;;;;;;;;;;;18.90;99.90;;;;;;5091752;28;19981;-40
2023/06/03 01:38:50;;;;;;;;;;;18.90;99.90;;;;;;5092510;28;19911;-38
2023/06/03 01:41:15;;;;;;;;;;;18.80;99.90;;;;;;5092345;28;19954;-39
2023/06/03 01:43:41;;;;;;;;;;;18.80;99.90;;;;;;5092136;28;20004;-39
2023/06/03 01:46:06;;;;;;;;;;;18.80;99.90;;;;;;5092353;28;19908;-38
2023/06/03 01:48:33;;;;;;;;;;;18.80;99.90;;;;;;5091402;28;20106;-40
2023/06/03 01:50:59;;;;;;;;;;;18.80;99.90;;;;;;5092158;28;19912;-38
2023/06/03 01:53:25;;;;;;;;;;;18.80;99.90;;;;;;5092166;28;19912;-42
2023/06/03 01:55:51;;;;;;;;;;;18.80;99.90;;;;;;5091761;28;19908;-39
2023/06/03 01:58:17;;;;;;;;;;;18.80;99.90;;;;;;5092126;28;19973;-38
2023/06/03 02:00:42;;;;;;;;;;;18.80;99.90;;;;;;5092097;28;19912;-39
2023/06/03 02:03:08;;;;;;;;;;;18.80;99.90;;;;;;5091944;28;20285;-40
2023/06/03 02:05:33;;;;;;;;;;;18.80;99.90;;;;;;5091867;28;19908;-39
2023/06/03 02:07:59;;;;;;;;;;;18.80;99.90;;;;;;5091370;28;19991;-38
2023/06/03 02:10:24;;;;;;;;;;;18.80;99.90;;;;;;5091856;28;20284;-39
2023/06/03 02:12:50;;;;;;;;;;;18.80;99.90;;;;;;5092706;28;19912;-38
2023/06/03 02:15:15;;;;;;;;;;;18.80;99.90;;;;;;5091814;28;19912;-40
2023/06/03 02:17:41;;;;;;;;;;;18.70;99.90;;;;;;5091886;28;19908;-39
2023/06/03 02:20:08;;;;;;;;;;;18.70;99.90;;;;;;5092243;28;19947;-42
2023/06/03 02:22:33;;;;;;;;;;;18.70;99.90;;;;;;5091800;28;19912;-38
2023/06/03 02:24:59;;;;;;;;;;;18.70;99.90;;;;;;5091665;28;19916;-39
2023/06/03 02:27:25;;;;;;;;;;;18.70;99.90;;;;;;5091082;28;19961;-36
2023/06/03 02:29:51;;;;;;;;;;;18.70;99.90;;;;;;5091538;28;19916;-39
2023/06/03 02:32:17;;;;;;;;;;;18.70;99.90;;;;;;5091588;28;19996;-39
2023/06/03 02:34:43;;;;;;;;;;;18.70;99.90;;;;;;5091961;28;19909;-41
2023/06/03 02:37:10;;;;;;;;;;;18.70;99.90;;;;;;5091042;28;19965;-39
2023/06/03 02:39:36;;;;;;;;;;;18.70;99.90;;;;;;5091571;28;19908;-39
2023/06/03 02:42:02;;;;;;;;;;;18.70;99.90;;;;;;5091460;28;19915;-37
2023/06/03 02:44:27;;;;;;;;;;;18.70;99.90;;;;;;5091413;28;20012;-39
2023/06/03 02:46:53;;;;;;;;;;;18.70;99.90;;;;;;5091391;28;19908;-39
2023/06/03 02:49:18;;;;;;;;;;;18.60;99.90;;;;;;5091811;28;19908;-38
2023/06/03 02:51:44;;;;;;;;;;;18.60;99.90;;;;;;5091324;28;19912;-40
2023/06/03 02:54:10;;;;;;;;;;;18.60;99.90;;;;;;5091313;28;20001;-40
2023/06/03 02:56:35;;;;;;;;;;;18.60;99.90;;;;;;5090883;28;19912;-41
2023/06/03 02:59:01;;;;;;;;;;;18.60;99.90;;;;;;5093379;28;19916;-38
2023/06/03 03:01:27;;;;;;;;;;;18.60;99.90;;;;;;5095411;28;20411;-40
2023/06/03 03:03:52;;;;;;;;;;;18.60;99.90;;;;;;5095155;28;20357;-39
2023/06/03 03:06:21;;;;;;;;;;;18.60;99.90;;;;;;5094983;28;19934;-38
2023/06/03 03:08:47;;;;;;;;;;;18.60;99.90;;;;;;5095223;28;19920;-39
2023/06/03 03:11:14;;;;;;;;;;;18.60;99.90;;;;;;5095307;28;19965;-38
2023/06/03 03:13:40;;;;;;;;;;;18.50;99.90;;;;;;5095319;28;20297;-39
2023/06/03 03:16:06;;;;;;;;;;;18.50;99.90;;;;;;5094724;28;19918;-40
2023/06/03 03:18:32;;;;;;;;;;;18.40;99.90;;;;;;5094966;28;19912;-39
2023/06/03 03:20:57;;;;;;;;;;;18.40;99.90;;;;;;5095083;28;19959;-41
2023/06/03 03:23:23;;;;;;;;;;;18.40;99.90;;;;;;5095068;28;20506;-38
2023/06/03 03:25:49;;;;;;;;;;;18.40;99.90;;;;;;5094825;28;20041;-39
2023/06/03 03:28:14;;;;;;;;;;;18.40;99.90;;;;;;5095133;28;19908;-40
2023/06/03 03:30:40;;;;;;;;;;;18.40;99.90;;;;;;5094769;28;20361;-39
2023/06/03 03:33:06;;;;;;;;;;;18.40;99.90;;;;;;5094580;28;19912;-39
2023/06/03 03:35:31;;;;;;;;;;;18.40;99.90;;;;;;5094691;28;19908;-39
2023/06/03 03:38:02;;;;;;;;;;;18.40;99.90;;;;;;5094395;28;20011;-39
2023/06/03 03:40:28;;;;;;;;;;;18.40;99.90;;;;;;5094725;28;20289;-39
2023/06/03 03:42:54;;;;;;;;;;;18.40;99.90;;;;;;5095049;28;19919;-39
2023/06/03 03:45:21;;;;;;;;;;;18.30;99.90;;;;;;5094713;28;20476;-40
2023/06/03 03:47:50;;;;;;;;;;;18.40;99.90;;;;;;5093927;28;19934;-38
2023/06/03 03:50:42;;;;;;;;;;;18.40;99.90;;;;;;5094783;28;19912;-39
2023/06/03 03:53:09;;;;;;;;;;;18.40;99.90;;;;;;5091174;28;19915;-39
2023/06/03 03:55:45;;;;;;;;;;;18.30;99.90;;;;;;5094332;28;19908;-38
2023/06/03 03:58:26;;;;;;;;;;;18.30;99.90;;;;;;5094409;28;19912;-39
2023/06/03 04:00:59;;;;;;;;;;;18.30;99.90;;;;;;5094488;28;19915;-39
2023/06/03 04:03:25;;;;;;;;;;;18.40;99.90;;;;;;5094414;28;19916;-38
2023/06/03 04:05:51;;;;;;;;;;;18.40;99.90;;;;;;5093852;28;20289;-39
2023/06/03 04:08:25;;;;;;;;;;;18.30;99.90;;;;;;5093958;28;19916;-40
2023/06/03 04:10:51;;;;;;;;;;;18.30;99.90;;;;;;5093090;28;19912;-38
2023/06/03 04:13:18;;;;;;;;;;;18.30;99.90;;;;;;5093988;28;19915;-38
2023/06/03 04:15:43;;;;;;;;;;;18.20;99.90;;;;;;5093763;28;19962;-40
2023/06/03 04:18:11;;;;;;;;;;;18.30;99.90;;;;;;5093756;28;19908;-39
2023/06/03 04:20:38;;;;;;;;;;;18.30;99.90;;;;;;5094401;28;19908;-39
2023/06/03 04:23:05;;;;;;;;;;;18.30;99.90;;;;;;5094391;28;19908;-38
2023/06/03 04:25:31;;;;;;;;;;;18.30;99.90;;;;;;5093728;28;20341;-39
2023/06/03 04:27:57;;;;;;;;;;;18.30;99.90;;;;;;5093282;28;19908;-38
2023/06/03 04:30:22;;;;;;;;;;;18.30;99.90;;;;;;5093831;28;19934;-38
2023/06/03 04:32:49;;;;;;;;;;;18.30;99.90;;;;;;5093703;28;20383;-39
2023/06/03 04:35:14;;;;;;;;;;;18.30;99.90;;;;;;5093579;28;19908;-39
2023/06/03 04:37:40;;;;;;;;;;;18.30;99.90;;;;;;5092946;28;19920;-39
2023/06/03 04:40:08;;;;;;;;;;;18.30;99.90;;;;;;5093692;28;19919;-39
2023/06/03 04:42:34;;;;;;;;;;;18.30;99.90;;;;;;5093712;28;19908;-40
2023/06/03 04:45:01;;;;;;;;;;;18.30;99.90;;;;;;5093774;28;19958;-39
2023/06/03 04:47:28;;;;;;;;;;;18.30;99.90;;;;;;5093287;28;19920;-39
2023/06/03 04:49:54;;;;;;;;;;;18.30;99.90;;;;;;5093206;28;21867;-39
2023/06/03 04:52:20;;;;;;;;;;;18.30;99.90;;;;;;5093211;28;20003;-39
2023/06/03 04:54:45;;;;;;;;;;;18.30;99.90;;;;;;5093153;28;19908;-38
2023/06/03 04:57:11;;;;;;;;;;;18.30;99.90;;;;;;5092642;28;19939;-38
2023/06/03 04:59:36;;;;;;;;;;;18.30;99.90;;;;;;5093272;28;19913;-40
2023/06/03 05:02:02;;;;;;;;;;;18.30;99.90;;;;;;5093143;28;20434;-39
2023/06/03 05:04:32;;;;;;;;;;;18.30;99.90;;;;;;5092944;28;19924;-40
2023/06/03 05:06:57;;;;;;;;;;;18.30;99.90;;;;;;5092757;28;19912;-41
2023/06/03 05:09:23;;;;;;;;;;;18.30;99.90;;;;;;5092815;28;19916;-39
2023/06/03 05:11:48;;;;;;;;;;;18.30;99.90;;;;;;5092848;28;19912;-38
2023/06/03 05:14:14;;;;;;;;;;;18.30;99.90;;;;;;5092789;28;19908;-40
2023/06/03 05:16:39;;;;;;;;;;;18.30;99.90;;;;;;5092318;28;19908;-38
2023/06/03 05:19:05;;;;;;;;;;;18.30;99.90;;;;;;5092725;28;19915;-39
2023/06/03 05:21:31;;;;;;;;;;;18.30;99.90;;;;;;5093109;28;20303;-39
2023/06/03 05:23:56;;;;;;;;;;;18.30;99.90;;;;;;5092473;28;20312;-40
2023/06/03 05:26:22;;;;;;;;;;;18.30;99.90;;;;;;5092151;28;19999;-39
2023/06/03 05:28:48;;;;;;;;;;;18.30;99.90;;;;;;5092594;28;19908;-41
2023/06/03 05:31:14;;;;;;;;;;;18.30;99.90;;;;;;5093125;28;19916;-40
2023/06/03 05:33:41;;;;;;;;;;;18.30;99.90;;;;;;5092365;28;19908;-39
2023/06/03 05:36:10;;;;;;;;;;;18.30;99.90;;;;;;5091909;28;20426;-41
2023/06/03 05:38:36;;;;;;;;;;;18.40;99.90;;;;;;5092216;28;19908;-39
2023/06/03 05:41:03;;;;;;;;;;;18.40;99.90;;;;;;5092306;28;20426;-40
2023/06/03 05:43:29;;;;;;;;;;;18.40;99.90;;;;;;5092233;28;19931;-39
2023/06/03 05:45:54;;;;;;;;;;;18.40;99.90;;;;;;5091886;28;20369;-38
2023/06/03 05:48:20;;;;;;;;;;;18.40;99.90;;;;;;5092412;28;20002;-38
2023/06/03 05:50:49;;;;;;;;;;;18.40;99.90;;;;;;5092092;28;20319;-40
2023/06/03 05:53:18;;;;;;;;;;;18.40;99.90;;;;;;5092189;28;19912;-38
2023/06/03 05:55:43;;;;;;;;;;;18.40;99.90;;;;;;5091940;28;19912;-39
2023/06/03 05:58:08;;;;;;;;;;;18.40;99.90;;;;;;5091829;28;19908;-38
2023/06/03 06:00:34;;;;;;;;;;;18.40;99.90;;;;;;5092315;28;19977;-39
2023/06/03 06:03:00;;;;;;;;;;;18.50;99.90;;;;;;5091965;28;20436;-39
2023/06/03 06:05:25;;;;;;;;;;;18.40;99.90;;;;;;5091869;28;19953;-39
2023/06/03 06:07:51;;;;;;;;;;;18.50;99.90;;;;;;5091374;28;19916;-38
2023/06/03 06:10:17;;;;;;;;;;;18.50;99.90;;;;;;5091846;28;20357;-40
2023/06/03 06:12:42;;;;;;;;;;;18.50;99.90;;;;;;5092276;28;20375;-40
2023/06/03 06:15:08;;;;;;;;;;;18.50;99.90;;;;;;5091743;28;20380;-40
2023/06/03 06:17:33;;;;;;;;;;;18.40;99.90;;;;;;5090115;28;19914;-40
2023/06/03 06:20:02;;;;;;;;;;;18.50;99.90;;;;;;5091715;28;19908;-39
2023/06/03 06:22:28;;;;;;;;;;;18.50;99.90;;;;;;5092386;28;20369;-39
2023/06/03 06:24:53;;;;;;;;;;;18.50;99.90;;;;;;5092255;28;19916;-39
2023/06/03 06:27:19;;;;;;;;;;;18.50;99.90;;;;;;5091114;28;20006;-39
2023/06/03 06:29:44;;;;;;;;;;;18.50;99.90;;;;;;5091572;28;20331;-40
2023/06/03 06:32:14;;;;;;;;;;;18.50;99.90;;;;;;5091461;28;20319;-38
2023/06/03 06:34:39;;;;;;;;;;;18.50;99.90;;;;;;5091000;28;19915;-39
2023/06/03 06:37:09;;;;;;;;;;;18.60;99.90;;;;;;5090942;28;19908;-40
2023/06/03 06:39:44;;;;;;;;;;;18.60;99.90;;;;;;5091448;28;20384;-39
2023/06/03 06:42:11;;;;;;;;;;;18.60;99.90;;;;;;5091497;28;19908;-39
2023/06/03 06:44:47;;;;;;;;;;;18.60;99.90;;;;;;5091313;28;19909;-39
2023/06/03 06:47:35;;;;;;;;;;;18.60;99.90;;;;;;5090956;28;19914;-39
2023/06/03 06:50:00;;;;;;;;;;;18.60;99.90;;;;;;5091450;28;19916;-39
2023/06/03 06:52:26;;;;;;;;;;;18.60;99.90;;;;;;5091406;28;19908;-39
2023/06/03 06:54:55;;;;;;;;;;;18.70;99.90;;;;;;5091368;28;19927;-40
2023/06/03 06:57:21;;;;;;;;;;;18.70;99.90;;;;;;5090778;28;20425;-39
2023/06/03 06:59:47;;;;;;;;;;;18.70;99.90;;;;;;5091316;28;19908;-38
2023/06/03 07:02:13;;;;;;;;;;;18.70;99.90;;;;;;5091347;28;19954;-39
2023/06/03 07:04:38;;;;;;;;;;;18.70;99.90;;;;;;5091400;28;19916;-38
2023/06/03 07:07:04;;;;;;;;;;;18.70;99.90;;;;;;5090859;28;20351;-40
2023/06/03 07:09:29;;;;;;;;;;;18.70;99.90;;;;;;5091275;28;19923;-39
2023/06/03 07:11:56;;;;;;;;;;;18.70;99.90;;;;;;5091207;28;19956;-39
2023/06/03 07:14:22;;;;;;;;;;;18.70;99.90;;;;;;5091477;28;20328;-39
2023/06/03 07:16:48;;;;;;;;;;;18.70;99.90;;;;;;5091441;28;19914;-38
2023/06/03 07:19:14;;;;;;;;;;;18.80;99.90;;;;;;5091156;28;19908;-40
2023/06/03 07:21:39;;;;;;;;;;;18.70;99.90;;;;;;5091098;28;20006;-39
2023/06/03 07:24:07;;;;;;;;;;;18.80;99.90;;;;;;5091504;28;19973;-39
2023/06/03 07:26:33;;;;;;;;;;;18.80;99.90;;;;;;5090651;28;20409;-39
2023/06/03 07:28:58;;;;;;;;;;;18.80;99.90;;;;;;5090885;28;19913;-39
2023/06/03 07:31:24;;;;;;;;;;;18.80;99.90;;;;;;5090986;28;20397;-38
2023/06/03 07:33:51;;;;;;;;;;;18.80;99.90;;;;;;5090911;28;20021;-39
2023/06/03 07:36:18;;;;;;;;;;;18.80;99.90;;;;;;5090504;28;20432;-38
2023/06/03 07:38:53;;;;;;;;;;;18.80;99.90;;;;;;5090853;28;19945;-38
2023/06/03 07:41:25;;;;;;;;;;;18.80;99.90;;;;;;5090906;28;19981;-39
2023/06/03 07:43:51;;;;;;;;;;;18.80;99.90;;;;;;5091157;28;19916;-39
2023/06/03 07:46:19;;;;;;;;;;;18.80;99.90;;;;;;5092714;28;20320;-39
2023/06/03 07:48:44;;;;;;;;;;;18.80;99.90;;;;;;5094485;28;19954;-39
2023/06/03 07:51:12;;;;;;;;;;;18.80;99.90;;;;;;5094383;28;19967;-39
2023/06/03 07:53:39;;;;;;;;;;;18.80;99.90;;;;;;5094386;28;20387;-39
2023/06/03 07:56:08;;;;;;;;;;;18.80;99.90;;;;;;5094184;28;19914;-37
2023/06/03 07:58:35;;;;;;;;;;;18.80;99.90;;;;;;5094327;28;19938;-38
2023/06/03 08:01:00;;;;;;;;;;;18.90;99.90;;;;;;5094420;28;19953;-40
2023/06/03 08:03:26;;;;;;;;;;;18.80;99.90;;;;;;5094255;28;19958;-40
2023/06/03 08:05:51;;;;;;;;;;;18.80;99.90;;;;;;5093714;28;19912;-41
2023/06/03 08:08:22;;;;;;;;;;;18.80;99.90;;;;;;5093907;28;19924;-40
2023/06/03 08:10:48;;;;;;;;;;;18.80;99.90;;;;;;5094092;28;19916;-43
2023/06/03 08:13:15;;;;;;;;;;;18.80;99.90;;;;;;5092701;28;19928;-42
2023/06/03 08:15:40;;;;;;;;;;;18.80;99.90;;;;;;5093881;28;19908;-41
2023/06/03 08:18:06;;;;;;;;;;;18.90;99.90;;;;;;5093522;28;19908;-40
2023/06/03 08:20:32;;;;;;;;;;;18.80;99.90;;;;;;5094472;28;19908;-39
2023/06/03 08:22:57;;;;;;;;;;;18.90;99.90;;;;;;5093842;28;19912;-41
2023/06/03 08:25:23;;;;;;;;;;;18.90;99.90;;;;;;5093666;28;19912;-40
2023/06/03 08:27:49;;;;;;;;;;;19.00;99.90;;;;;;5093292;28;20393;-40
2023/06/03 08:30:15;;;;;;;;;;;19.00;99.90;;;;;;5093745;28;20007;-40
2023/06/03 08:32:41;;;;;;;;;;;19.00;99.90;;;;;;5093645;28;19974;-40
2023/06/03 08:35:07;;;;;;;;;;;19.00;99.90;;;;;;5093493;28;19914;-40
2023/06/03 08:37:33;;;;;;;;;;;19.10;99.90;;;;;;5093321;28;19916;-40
2023/06/03 08:40:00;;;;;;;;;;;19.10;99.90;;;;;;5093574;28;19965;-40
2023/06/03 08:42:30;;;;;;;;;;;19.10;99.90;;;;;;5093558;28;19915;-39
2023/06/03 08:45:06;;;;;;;;;;;19.10;99.90;;;;;;5093403;28;20441;-40
2023/06/03 08:47:35;;;;;;;;;;;19.10;99.90;;;;;;5092889;28;20003;-40
2023/06/03 08:50:05;;;;;;;;;;;19.10;99.90;;;;;;5093408;28;19908;-40
2023/06/03 08:52:33;;;;;;;;;;;19.10;99.90;;;;;;5093315;28;20388;-41
2023/06/03 08:55:00;;;;;;;;;;;19.10;99.90;;;;;;5093247;28;19916;-40
2023/06/03 08:57:27;;;;;;;;;;;19.20;99.90;;;;;;5092578;28;19943;-39
2023/06/03 08:59:53;;;;;;;;;;;19.20;99.90;;;;;;5093149;28;19908;-40
2023/06/03 09:02:19;;;;;;;;;;;19.20;99.90;;;;;;5093144;28;19913;-40
2023/06/03 09:04:47;;;;;;;;;;;19.20;99.90;;;;;;5093051;28;20266;-40
2023/06/03 09:07:13;;;;;;;;;;;19.20;99.90;;;;;;5092858;28;19908;-40
2023/06/03 09:09:38;;;;;;;;;;;19.20;99.90;;;;;;5092996;28;19953;-41
2023/06/03 09:12:05;;;;;;;;;;;19.20;99.90;;;;;;5092891;28;19912;-40
2023/06/03 09:14:31;;;;;;;;;;;19.20;99.90;;;;;;5092966;28;19916;-40
2023/06/03 09:16:58;;;;;;;;;;;19.20;99.90;;;;;;5092251;28;20278;-40
2023/06/03 09:19:25;;;;;;;;;;;19.20;99.90;;;;;;5092742;28;19955;-40
2023/06/03 09:21:52;;;;;;;;;;;19.20;99.90;;;;;;5092654;28;20373;-40
2023/06/03 09:24:18;;;;;;;;;;;19.20;99.90;;;;;;5092599;28;19912;-40
2023/06/03 09:26:43;;;;;;;;;;;19.20;99.90;;;;;;5092563;28;20024;-40
2023/06/03 09:29:11;;;;;;;;;;;19.30;99.90;;;;;;5092522;28;19912;-40
2023/06/03 09:31:37;;;;;;;;;;;19.20;99.90;;;;;;5092430;28;19969;-41
2023/06/03 09:34:02;;;;;;;;;;;19.30;99.90;;;;;;5092450;28;19912;-39
2023/06/03 09:36:28;;;;;;;;;;;19.30;99.90;;;;;;5092213;28;19908;-40
2023/06/03 09:38:55;;;;;;;;;;;19.30;99.90;;;;;;5092438;28;20432;-40
2023/06/03 09:41:21;;;;;;;;;;;19.30;99.90;;;;;;5092861;28;19930;-40
2023/06/03 09:43:54;;;;;;;;;;;19.30;99.90;;;;;;5092755;28;19912;-39
2023/06/03 09:46:20;;;;;;;;;;;19.30;99.90;;;;;;5091768;28;19934;-40
2023/06/03 09:48:45;;;;;;;;;;;19.30;99.90;;;;;;5092455;28;19908;-40
2023/06/03 09:51:11;;;;;;;;;;;19.30;99.90;;;;;;5092226;28;19920;-40
2023/06/03 09:53:37;;;;;;;;;;;19.30;99.90;;;;;;5092174;28;19908;-40
2023/06/03 09:56:21;;;;;;;;;;;19.30;99.90;;;;;;5091787;28;20266;-40
2023/06/03 09:58:47;;;;;;;;;;;19.40;99.90;;;;;;5092099;28;20397;-40
2023/06/03 10:01:12;;;;;;;;;;;19.40;99.90;;;;;;5092177;28;20039;-40
2023/06/03 10:03:39;;;;;;;;;;;19.40;99.90;;;;;;5092232;28;19912;-40
2023/06/03 10:06:17;;;;;;;;;;;19.40;99.90;;;;;;5091572;28;20213;-39
2023/06/03 10:08:43;;;;;;;;;;;19.40;99.90;;;;;;5091022;28;19923;-40
2023/06/03 10:11:09;;;;;;;;;;;19.40;99.90;;;;;;5091783;28;19916;-40
2023/06/03 10:13:34;;;;;;;;;;;19.40;99.90;;;;;;5091925;28;19908;-42
2023/06/03 10:16:02;;;;;;;;;;;19.40;99.90;;;;;;5091574;28;19908;-39
2023/06/03 10:18:37;;;;;;;;;;;19.40;99.90;;;;;;5091705;28;20374;-41
2023/06/03 10:21:07;;;;;;;;;;;19.40;99.90;;;;;;5091768;28;19912;-40
2023/06/03 10:23:34;;;;;;;;;;;19.40;99.90;;;;;;5091846;28;20288;-40
2023/06/03 10:26:00;;;;;;;;;;;19.50;99.90;;;;;;5091328;28;20036;-39
2023/06/03 10:28:25;;;;;;;;;;;19.40;99.90;;;;;;5091533;28;20414;-40
2023/06/03 10:30:51;;;;;;;;;;;19.50;99.90;;;;;;5091509;28;19916;-40
2023/06/03 10:33:18;;;;;;;;;;;19.50;99.90;;;;;;5091707;28;19915;-40
2023/06/03 10:35:44;;;;;;;;;;;19.50;99.90;;;;;;5091280;28;20375;-40
2023/06/03 10:38:10;;;;;;;;;;;19.50;99.90;;;;;;5091293;28;19912;-40
2023/06/03 10:40:36;;;;;;;;;;;19.50;99.90;;;;;;5091552;28;20377;-40
2023/06/03 10:43:02;;;;;;;;;;;19.50;99.90;;;;;;5091526;28;19931;-42
2023/06/03 10:45:28;;;;;;;;;;;19.50;99.90;;;;;;5091329;28;19983;-40
2023/06/03 10:47:58;;;;;;;;;;;19.50;99.90;;;;;;5091056;28;20377;-40
2023/06/03 10:50:32;;;;;;;;;;;19.50;99.90;;;;;;5091296;28;19923;-41
2023/06/03 10:53:16;;;;;;;;;;;19.50;99.90;;;;;;5091506;28;19915;-40
2023/06/03 10:55:48;;;;;;;;;;;19.50;99.90;;;;;;5091315;28;19912;-40
2023/06/03 10:58:21;;;;;;;;;;;19.50;99.90;;;;;;5091230;28;19912;-42
2023/06/03 11:01:00;;;;;;;;;;;19.50;99.90;;;;;;5091209;28;19912;-39
2023/06/03 11:03:32;;;;;;;;;;;19.50;99.90;;;;;;5091229;28;19908;-40
2023/06/03 11:06:16;;;;;;;;;;;19.60;99.90;;;;;;5090907;28;19908;-40
2023/06/03 11:09:05;;;;;;;;;;;19.60;99.90;;;;;;5091139;28;19999;-41
2023/06/03 11:12:22;;;;;;;;;;;19.60;99.90;;;;;;5091169;28;20389;-40
2023/06/03 11:14:39;;;;;;;;;;;19.60;99.90;;;;;;5083052;28;19908;-40
2023/06/03 11:17:05;;;;;;;;;;;19.60;99.90;;;;;;5090717;28;19908;-40
2023/06/03 11:19:50;;;;;;;;;;;19.60;99.90;;;;;;5092086;28;19919;-40
2023/06/03 11:22:28;;;;;;;;;;;19.60;99.90;;;;;;5095291;28;20213;-40
2023/06/03 11:24:58;;;;;;;;;;;19.60;99.90;;;;;;5095234;28;19996;-40
2023/06/03 11:27:24;;;;;;;;;;;19.60;99.90;;;;;;5095269;28;20362;-40
2023/06/03 11:29:51;;;;;;;;;;;19.70;99.90;;;;;;5095115;28;19908;-40
2023/06/03 11:32:26;;;;;;;;;;;19.70;99.90;;;;;;5094808;28;19923;-40
2023/06/03 11:35:04;;;;;;;;;;;19.60;99.90;;;;;;5094972;28;19912;-40
2023/06/03 11:37:36;;;;;;;;;;;19.70;99.90;;;;;;5094325;28;20423;-40
2023/06/03 11:40:09;;;;;;;;;;;19.70;99.90;;;;;;5094764;28;20383;-40
2023/06/03 11:42:49;;;;;;;;;;;19.70;99.90;;;;;;5094621;28;19920;-40
2023/06/03 11:45:21;;;;;;;;;;;19.70;99.90;;;;;;5094602;28;19912;-40
2023/06/03 11:47:50;;;;;;;;;;;19.70;99.90;;;;;;5094724;28;19961;-40
2023/06/03 11:50:16;;;;;;;;;;;19.70;99.90;;;;;;5094539;28;19934;-40
2023/06/03 11:52:42;;;;;;;;;;;19.70;99.90;;;;;;5094553;28;19908;-40
2023/06/03 11:55:07;;;;;;;;;;;19.70;99.90;;;;;;5094307;28;19908;-41
2023/06/03 11:57:33;;;;;;;;;;;19.80;99.90;;;;;;5093947;28;19908;-40
2023/06/03 12:00:09;;;;;;;;;;;19.80;99.90;;;;;;5094555;28;19943;-41
2023/06/03 12:02:38;;;;;;;;;;;19.80;99.90;;;;;;5094387;28;19912;-40
2023/06/03 12:05:05;;;;;;;;;;;19.80;99.90;;;;;;5094186;28;20307;-40
2023/06/03 12:07:30;;;;;;;;;;;19.80;99.90;;;;;;5093979;28;20007;-40
2023/06/03 12:09:58;;;;;;;;;;;19.80;99.90;;;;;;5094446;28;20007;-40
2023/06/03 12:12:24;;;;;;;;;;;19.80;99.90;;;;;;5094303;28;19916;-39
2023/06/03 12:14:49;;;;;;;;;;;19.80;99.90;;;;;;5093989;28;19908;-41
2023/06/03 12:17:18;;;;;;;;;;;20.10;99.90;;;;;;5094102;28;19912;-41
2023/06/03 12:19:47;;;;;;;;;;;20.10;99.90;;;;;;5094029;28;20470;-39
2023/06/03 12:22:13;;;;;;;;;;;20.20;99.90;;;;;;5093782;28;19961;-40
2023/06/03 12:24:39;;;;;;;;;;;20.20;99.90;;;;;;5094010;28;20013;-40
2023/06/03 12:27:14;;;;;;;;;;;20.20;99.90;;;;;;5092062;28;19915;-41
2023/06/03 12:29:47;;;;;;;;;;;20.20;99.90;;;;;;5094040;28;19909;-41
2023/06/03 12:32:13;;;;;;;;;;;20.20;99.90;;;;;;5093154;28;19912;-41
2023/06/03 12:34:38;;;;;;;;;;;20.20;99.90;;;;;;5093581;28;19915;-42
2023/06/03 12:37:05;;;;;;;;;;;20.10;99.90;;;;;;5093241;28;20194;-40
2023/06/03 12:39:41;;;;;;;;;;;20.20;99.90;;;;;;5093762;28;19908;-41
2023/06/03 12:42:06;;;;;;;;;;;20.20;99.90;;;;;;5093692;28;19994;-40
2023/06/03 12:44:52;;;;;;;;;;;20.10;99.90;;;;;;5093670;28;20003;-41
2023/06/03 12:47:21;;;;;;;;;;;20.10;99.90;;;;;;5093038;28;19912;-40
2023/06/03 12:50:03;;;;;;;;;;;20.10;99.90;;;;;;5093673;28;19970;-41
2023/06/03 12:52:31;;;;;;;;;;;20.10;99.90;;;;;;5093452;28;19912;-41
2023/06/03 12:54:56;;;;;;;;;;;20.10;99.90;;;;;;5094030;28;19908;-44
2023/06/03 12:57:22;;;;;;;;;;;20.10;99.90;;;;;;5092644;28;19961;-41
2023/06/03 13:00:06;;;;;;;;;;;20.10;99.90;;;;;;5093580;28;19912;-41
2023/06/03 13:02:32;;;;;;;;;;;20.10;99.90;;;;;;5093474;28;20430;-40
2023/06/03 13:04:58;;;;;;;;;;;20.10;99.90;;;;;;5093061;28;19964;-41
2023/06/03 13:07:23;;;;;;;;;;;20.10;99.90;;;;;;5092474;28;20002;-40
2023/06/03 13:09:49;;;;;;;;;;;20.10;99.90;;;;;;5093103;28;19911;-41
2023/06/03 13:12:15;;;;;;;;;;;20.10;99.90;;;;;;5092799;28;19919;-41
2023/06/03 13:14:41;;;;;;;;;;;20.10;99.90;;;;;;5093151;28;19908;-40
2023/06/03 13:17:07;;;;;;;;;;;20.10;99.90;;;;;;5092848;28;19908;-40
2023/06/03 13:19:35;;;;;;;;;;;20.10;99.90;;;;;;5093073;28;19908;-42
2023/06/03 13:22:00;;;;;;;;;;;20.10;99.90;;;;;;5092890;28;19908;-41
2023/06/03 13:24:26;;;;;;;;;;;20.10;99.90;;;;;;5092686;28;19908;-38
2023/06/03 13:26:51;;;;;;;;;;;20.30;99.90;;;;;;5092111;28;19947;-40
2023/06/03 13:29:17;;;;;;;;;;;20.50;99.90;;;;;;5092712;28;19914;-40
2023/06/03 13:31:42;;;;;;;;;;;20.50;99.90;;;;;;5093526;28;19958;-39
2023/06/03 13:34:08;;;;;;;;;;;20.50;99.90;;;;;;5094044;28;19915;-40
2023/06/03 13:36:33;;;;;;;;;;;20.50;99.90;;;;;;5092044;28;19912;-40
2023/06/03 13:38:59;;;;;;;;;;;20.50;99.90;;;;;;5092770;28;19912;-42
2023/06/03 13:41:25;;;;;;;;;;;20.60;99.90;;;;;;5092336;28;20014;-40
2023/06/03 13:43:50;;;;;;;;;;;20.60;99.90;;;;;;5092366;28;19912;-41
2023/06/03 13:46:16;;;;;;;;;;;20.70;99.90;;;;;;5092368;28;20305;-40
2023/06/03 13:48:41;;;;;;;;;;;20.60;99.90;;;;;;5092332;28;19919;-39
2023/06/03 13:51:07;;;;;;;;;;;20.70;99.90;;;;;;5092256;28;19920;-39
2023/06/03 13:53:32;;;;;;;;;;;20.60;99.90;;;;;;5092122;28;20007;-40
2023/06/03 13:55:58;;;;;;;;;;;20.60;99.90;;;;;;5091966;28;19914;-40
2023/06/03 13:58:23;;;;;;;;;;;20.60;99.90;;;;;;5092247;28;20281;-41
2023/06/03 14:00:49;;;;;;;;;;;20.60;99.90;;;;;;5092299;28;19915;-40
2023/06/03 14:03:14;;;;;;;;;;;20.60;99.90;;;;;;5092233;28;19958;-40
2023/06/03 14:05:40;;;;;;;;;;;20.60;99.90;;;;;;5091938;28;19912;-40
2023/06/03 14:08:05;;;;;;;;;;;20.60;99.90;;;;;;5091470;28;19923;-41
2023/06/03 14:10:31;;;;;;;;;;;20.60;99.90;;;;;;5091728;28;19922;-40
2023/06/03 14:12:58;;;;;;;;;;;20.60;99.90;;;;;;5091837;28;20400;-40
2023/06/03 14:15:24;;;;;;;;;;;20.60;99.90;;;;;;5091738;28;19970;-38
2023/06/03 14:17:49;;;;;;;;;;;20.60;99.90;;;;;;5091488;28;19930;-39